Edgerton, WY (82635)

12:27 AM MDT on August 01, 2014 (GMT -0600)
Natrona County International (KCPR) Elev 5289 ft | 42.90 °N, 106.47 °W | Change Station

Current weather conditions updated 34 minutes ago

Clear
Clear
61 °F
Feels Like 61 °F
N
5
Wind Variable Wind from West

Today is forecast to be nearly the same temperature as yesterday.

Today
High -- | Low -- °F
--% Chance of Precip.
Yesterday
High -- | Low -- °F
Precip. -- in
5:54 AM 8:27 PM
Waxing Crescent, 24% visible
Pressure 30.03 in
Visibility 10.0 miles
Clouds Clear
Dew Point 35 °F
Humidity 38%
Rainfall 0.00 in
Snow Depth Not available.
UV 0 out of 12
Pollen 6.20 out of 12
Air Quality Not available.
Flu Activity Not available.
METAR KCPR 010553Z AUTO 27004KT 10SM CLR 16/02 A3022 RMK AO2 SLP168 T01610017 10289 20122 51008

More Conditions Fewer Conditions

Pressure 30.03 in
Visibility 10.0 miles
Clouds Clear
Dew Point 35 °F
Humidity 38%
Rainfall 0.00 in
Snow Depth Not available.
UV 0 out of 12
Pollen 6.20 out of 12
Air Quality Not available.
Flu Activity Not available.
METAR KCPR 010553Z AUTO 27004KT 10SM CLR 16/02 A3022 RMK AO2 SLP168 T01610017 10289 20122 51008

More Conditions Fewer Conditions

10-Day Weather Forecast

Almanac

Astronomy

Aug. 01, 2014 Rise Set
Actual Time 5:54 AM MDT 8:27 PM MDT
Civil Twilight 5:22 AM MDT 8:59 PM MDT
Nautical Twilight 4:41 AM MDT 9:40 PM MDT
Astronomical Twilight 3:55 AM MDT 10:25 PM MDT
Moon 11:32 AM MDT 11:01 PM MDT
Length of Visible Light 15h 37m
Length of Day
14h 32m
Tomorrow will be 2m 17s shorter.
Waxing Crescent, 24% of the Moon is Illuminated
Today
Waxing Crescent
Aug 3
First Quarter
Aug 10
Full
Aug 17
Last Quarter
Aug 25
New

Today's Extremes

State Highs State Lows

Community

WunderPhotos

Upload Photos

1,739,522 photos uploaded!

Nearby

Snow Depth

Station Depth Elevation
Casper Mountain 0 in 7850 ft
Middle Powder 0 in 7760 ft
Grave Springs 1 in 8550 ft
Reno Hill 0 in 8500 ft
Powder River Pass 0 in 9480 ft

Earthquake Activity

City Distance Mag. Time & Date
No recent earthquake activity has been reported nearby.
Minimum magnitude displayed is 2.5.

Coastal Water Temperatures

Place Temperature
No Stations Reporting

Nearby Weather Stations

There are no personal weather stations in this area.